EZY335 DTTA-LIEO
Flight info
| Callsign | EZY335 |
|---|---|
| Flight time | 0h 58m |
| Altitude | 36000 |
| Route | TOBIB2A TOBIB DCT TANIT DCT OSMAR DCT PIRIX DCT CAR DCT LABOM |
| Aircraft | A320/M-SDE3FGHIRWY/LB1 |
Departure
| Time | 2026-05-08 20:02 |
|---|---|
| Airport | Tunis Carthage International Airport (DTTA) |
Arrival
| Time | 2026-05-08 21:00 |
|---|---|
| Airport | Olbia Costa Smeralda Airport (LIEO) |
| Time | Latitude | Longitude | Altitude | Speed | Heading |
|---|---|---|---|---|---|
| 2026-05-08 19:40 | 36.84193 | 10.21819 | 31 ft | 0 kts | 282° |
| 2026-05-08 19:42 | 36.84603 | 10.21998 | 31 ft | 0 kts | 254° |
| 2026-05-08 19:54 | 36.84604 | 10.22001 | 30 ft | 3 kts | 254° |
| 2026-05-08 19:54 | 36.84611 | 10.22032 | 30 ft | 4 kts | 254° |
| 2026-05-08 19:54 | 36.84618 | 10.22064 | 30 ft | 4 kts | 250° |
| 2026-05-08 19:55 | 36.84630 | 10.22094 | 30 ft | 4 kts | 224° |
| 2026-05-08 19:55 | 36.84649 | 10.22106 | 30 ft | 4 kts | 192° |
| 2026-05-08 19:55 | 36.84675 | 10.22111 | 30 ft | 4 kts | 173° |
| 2026-05-08 19:55 | 36.84686 | 10.22109 | 30 ft | 0 kts | 163° |
| 2026-05-08 19:57 | 36.84676 | 10.22111 | 30 ft | 5 kts | 171° |
| 2026-05-08 19:58 | 36.84614 | 10.22097 | 30 ft | 13 kts | 192° |
| 2026-05-08 19:58 | 36.84496 | 10.22061 | 30 ft | 20 kts | 204° |
| 2026-05-08 19:58 | 36.84378 | 10.21968 | 30 ft | 21 kts | 197° |
| 2026-05-08 19:58 | 36.84227 | 10.21927 | 30 ft | 23 kts | 192° |
| 2026-05-08 19:59 | 36.84069 | 10.21882 | 30 ft | 23 kts | 193° |
| 2026-05-08 19:59 | 36.83917 | 10.21843 | 30 ft | 7 kts | 182° |
| 2026-05-08 19:59 | 36.83912 | 10.21844 | 30 ft | 1 kts | 168° |
| 2026-05-08 19:59 | 36.83906 | 10.21875 | 30 ft | 9 kts | 104° |
| 2026-05-08 20:00 | 36.83882 | 10.22007 | 30 ft | 20 kts | 101° |
| 2026-05-08 20:00 | 36.83862 | 10.22151 | 30 ft | 23 kts | 97° |
| 2026-05-08 20:00 | 36.83939 | 10.22343 | 31 ft | 28 kts | 51° |
| 2026-05-08 20:00 | 36.84088 | 10.22423 | 32 ft | 15 kts | 13° |
| 2026-05-08 20:01 | 36.84110 | 10.22429 | 32 ft | 2 kts | 13° |
| 2026-05-08 20:01 | 36.84303 | 10.22481 | 30 ft | 65 kts | 12° |
| 2026-05-08 20:01 | 36.84963 | 10.22661 | 33 ft | 126 kts | 12° |
| 2026-05-08 20:01 | 36.85971 | 10.22934 | 156 ft | 161 kts | 12° |
| 2026-05-08 20:02 | 36.87071 | 10.23243 | 805 ft | 163 kts | 4° |
| 2026-05-08 20:02 | 36.88172 | 10.22910 | 1425 ft | 170 kts | 338° |
| 2026-05-08 20:02 | 36.89351 | 10.22371 | 1744 ft | 191 kts | 343° |
| 2026-05-08 20:02 | 36.90702 | 10.21850 | 2026 ft | 216 kts | 344° |
| 2026-05-08 20:03 | 36.92223 | 10.21305 | 2435 ft | 240 kts | 345° |
| 2026-05-08 20:03 | 36.93900 | 10.20728 | 3046 ft | 255 kts | 345° |
| 2026-05-08 20:03 | 36.95628 | 10.20148 | 3902 ft | 259 kts | 343° |
| 2026-05-08 20:03 | 36.97384 | 10.19573 | 4852 ft | 261 kts | 342° |
| 2026-05-08 20:04 | 36.99150 | 10.19006 | 5759 ft | 263 kts | 341° |
| 2026-05-08 20:04 | 37.00937 | 10.18440 | 6644 ft | 266 kts | 340° |
| 2026-05-08 20:04 | 37.02743 | 10.17868 | 7451 ft | 269 kts | 340° |
| 2026-05-08 20:04 | 37.04566 | 10.17286 | 8278 ft | 272 kts | 339° |
| 2026-05-08 20:05 | 37.06417 | 10.16697 | 9099 ft | 276 kts | 339° |
| 2026-05-08 20:05 | 37.08291 | 10.16101 | 9913 ft | 280 kts | 339° |
| 2026-05-08 20:05 | 37.10205 | 10.15489 | 10489 ft | 292 kts | 339° |
| 2026-05-08 20:05 | 37.12251 | 10.14825 | 10731 ft | 315 kts | 339° |
| 2026-05-08 20:06 | 37.14450 | 10.14113 | 10997 ft | 335 kts | 340° |
| 2026-05-08 20:06 | 37.16713 | 10.13391 | 11563 ft | 343 kts | 340° |
| 2026-05-08 20:06 | 37.19045 | 10.12654 | 12239 ft | 348 kts | 340° |
| 2026-05-08 20:06 | 37.21408 | 10.11911 | 12949 ft | 352 kts | 340° |
| 2026-05-08 20:07 | 37.23794 | 10.11159 | 13633 ft | 356 kts | 340° |
| 2026-05-08 20:07 | 37.26212 | 10.10393 | 14257 ft | 360 kts | 339° |
| 2026-05-08 20:07 | 37.28653 | 10.09615 | 14877 ft | 363 kts | 339° |
| 2026-05-08 20:07 | 37.31111 | 10.08827 | 15501 ft | 366 kts | 339° |
| 2026-05-08 20:08 | 37.33591 | 10.08031 | 16117 ft | 369 kts | 339° |
| 2026-05-08 20:08 | 37.36089 | 10.07231 | 16727 ft | 372 kts | 339° |
| 2026-05-08 20:08 | 37.38606 | 10.06426 | 17329 ft | 375 kts | 339° |
| 2026-05-08 20:08 | 37.41145 | 10.05616 | 17927 ft | 378 kts | 339° |
| 2026-05-08 20:09 | 37.43711 | 10.04805 | 18490 ft | 381 kts | 339° |
| 2026-05-08 20:09 | 37.46293 | 10.03991 | 18976 ft | 385 kts | 339° |
| 2026-05-08 20:09 | 37.48901 | 10.03170 | 19453 ft | 388 kts | 339° |
| 2026-05-08 20:09 | 37.51528 | 10.02340 | 19936 ft | 391 kts | 338° |
| 2026-05-08 20:10 | 37.54174 | 10.01502 | 20414 ft | 394 kts | 338° |
| 2026-05-08 20:10 | 37.56844 | 10.00654 | 20887 ft | 397 kts | 338° |
| 2026-05-08 20:10 | 37.59533 | 9.99796 | 21361 ft | 400 kts | 338° |
| 2026-05-08 20:10 | 37.61325 | 9.99226 | 21654 ft | 402 kts | 338° |
| 2026-05-08 20:11 | 37.64971 | 9.98068 | 22258 ft | 406 kts | 338° |
| 2026-05-08 20:11 | 37.67725 | 9.97193 | 22718 ft | 409 kts | 338° |
| 2026-05-08 20:11 | 37.70496 | 9.96311 | 23142 ft | 412 kts | 338° |
| 2026-05-08 20:11 | 37.73288 | 9.95424 | 23587 ft | 415 kts | 337° |
| 2026-05-08 20:12 | 37.76099 | 9.94530 | 23975 ft | 417 kts | 337° |
| 2026-05-08 20:12 | 37.78919 | 9.93636 | 24381 ft | 419 kts | 337° |
| 2026-05-08 20:12 | 37.81750 | 9.92738 | 24781 ft | 420 kts | 337° |
| 2026-05-08 20:12 | 37.84585 | 9.91834 | 25182 ft | 421 kts | 337° |
| 2026-05-08 20:13 | 37.87431 | 9.90925 | 25575 ft | 421 kts | 337° |
| 2026-05-08 20:13 | 37.90277 | 9.90015 | 25966 ft | 422 kts | 337° |
| 2026-05-08 20:13 | 37.93093 | 9.89114 | 26356 ft | 423 kts | 337° |
| 2026-05-08 20:13 | 37.95951 | 9.88203 | 26742 ft | 424 kts | 337° |
| 2026-05-08 20:14 | 37.98815 | 9.87291 | 27124 ft | 425 kts | 337° |
| 2026-05-08 20:14 | 38.01693 | 9.86372 | 27509 ft | 426 kts | 337° |
| 2026-05-08 20:14 | 38.04573 | 9.85449 | 27861 ft | 428 kts | 337° |
| 2026-05-08 20:14 | 38.07461 | 9.84520 | 28224 ft | 429 kts | 337° |
| 2026-05-08 20:15 | 38.10348 | 9.83593 | 28574 ft | 429 kts | 337° |
| 2026-05-08 20:15 | 38.13248 | 9.82662 | 28910 ft | 431 kts | 337° |
| 2026-05-08 20:15 | 38.16159 | 9.81725 | 29241 ft | 432 kts | 337° |
| 2026-05-08 20:15 | 38.19081 | 9.80786 | 29578 ft | 432 kts | 337° |
| 2026-05-08 20:16 | 38.22001 | 9.79846 | 29900 ft | 433 kts | 337° |
| 2026-05-08 20:16 | 38.24922 | 9.78904 | 30234 ft | 433 kts | 336° |
| 2026-05-08 20:16 | 38.27839 | 9.77967 | 30624 ft | 431 kts | 336° |
| 2026-05-08 20:16 | 38.30743 | 9.77034 | 30987 ft | 430 kts | 336° |
| 2026-05-08 20:17 | 38.33642 | 9.76105 | 31339 ft | 429 kts | 336° |
| 2026-05-08 20:17 | 38.36528 | 9.75184 | 31673 ft | 428 kts | 336° |
| 2026-05-08 20:17 | 38.39416 | 9.74263 | 32012 ft | 427 kts | 336° |
| 2026-05-08 20:17 | 38.42295 | 9.73340 | 32362 ft | 426 kts | 335° |
| 2026-05-08 20:18 | 38.45165 | 9.72416 | 32709 ft | 425 kts | 335° |
| 2026-05-08 20:18 | 38.48033 | 9.71493 | 33057 ft | 424 kts | 335° |
| 2026-05-08 20:18 | 38.50887 | 9.70571 | 33393 ft | 423 kts | 335° |
| 2026-05-08 20:18 | 38.53736 | 9.69649 | 33740 ft | 422 kts | 334° |
| 2026-05-08 20:19 | 38.56575 | 9.68729 | 34072 ft | 421 kts | 334° |
| 2026-05-08 20:19 | 38.59425 | 9.67804 | 34358 ft | 421 kts | 334° |
| 2026-05-08 20:19 | 38.62224 | 9.66896 | 34626 ft | 420 kts | 334° |
| 2026-05-08 20:19 | 38.65063 | 9.65981 | 34884 ft | 420 kts | 334° |
| 2026-05-08 20:20 | 38.67896 | 9.65067 | 35142 ft | 420 kts | 334° |
| 2026-05-08 20:20 | 38.70694 | 9.64162 | 35382 ft | 420 kts | 334° |
| 2026-05-08 20:20 | 38.73527 | 9.63244 | 35609 ft | 420 kts | 334° |
| 2026-05-08 20:20 | 38.76363 | 9.62325 | 35842 ft | 420 kts | 334° |
| 2026-05-08 20:21 | 38.79190 | 9.61403 | 36025 ft | 420 kts | 334° |
| 2026-05-08 20:21 | 38.82027 | 9.60478 | 36076 ft | 421 kts | 334° |
| 2026-05-08 20:21 | 38.87701 | 9.58628 | 36076 ft | 420 kts | 334° |
| 2026-05-08 20:22 | 38.93368 | 9.56772 | 36075 ft | 420 kts | 333° |
| 2026-05-08 20:22 | 38.98068 | 9.55208 | 36075 ft | 420 kts | 333° |
| 2026-05-08 20:23 | 39.04665 | 9.52984 | 36077 ft | 419 kts | 333° |
| 2026-05-08 20:23 | 39.10321 | 9.51103 | 36086 ft | 423 kts | 336° |
| 2026-05-08 20:24 | 39.13289 | 9.50606 | 36088 ft | 437 kts | 344° |
| 2026-05-08 20:24 | 39.16324 | 9.50374 | 36089 ft | 437 kts | 344° |
| 2026-05-08 20:24 | 39.22358 | 9.49909 | 36095 ft | 437 kts | 344° |
| 2026-05-08 20:25 | 39.28418 | 9.49428 | 36096 ft | 436 kts | 344° |
| 2026-05-08 20:25 | 39.34477 | 9.48931 | 36085 ft | 436 kts | 344° |
| 2026-05-08 20:26 | 39.40414 | 9.48452 | 36080 ft | 435 kts | 344° |
| 2026-05-08 20:26 | 39.46480 | 9.47964 | 36093 ft | 436 kts | 344° |
| 2026-05-08 20:27 | 39.52544 | 9.47469 | 36098 ft | 437 kts | 344° |
| 2026-05-08 20:27 | 39.58622 | 9.46974 | 35189 ft | 443 kts | 345° |
| 2026-05-08 20:28 | 39.61737 | 9.46706 | 34138 ft | 453 kts | 345° |
| 2026-05-08 20:28 | 39.63824 | 9.46528 | 33570 ft | 454 kts | 345° |
| 2026-05-08 20:28 | 39.66977 | 9.46268 | 32483 ft | 460 kts | 346° |
| 2026-05-08 20:28 | 39.70191 | 9.46012 | 31511 ft | 463 kts | 347° |
| 2026-05-08 20:29 | 39.73425 | 9.45756 | 30616 ft | 466 kts | 348° |
| 2026-05-08 20:29 | 39.76641 | 9.45505 | 30022 ft | 461 kts | 348° |
| 2026-05-08 20:29 | 39.79835 | 9.45258 | 29310 ft | 456 kts | 349° |
| 2026-05-08 20:29 | 39.82976 | 9.45016 | 28677 ft | 451 kts | 349° |
| 2026-05-08 20:30 | 39.86086 | 9.44769 | 28046 ft | 445 kts | 349° |
| 2026-05-08 20:30 | 39.89164 | 9.44518 | 27421 ft | 440 kts | 349° |
| 2026-05-08 20:30 | 39.92209 | 9.44267 | 26808 ft | 436 kts | 349° |
| 2026-05-08 20:30 | 39.95215 | 9.44014 | 26208 ft | 432 kts | 349° |
| 2026-05-08 20:31 | 39.98209 | 9.43763 | 25607 ft | 429 kts | 349° |
| 2026-05-08 20:31 | 40.01133 | 9.43517 | 25016 ft | 426 kts | 349° |
| 2026-05-08 20:31 | 40.04116 | 9.43268 | 24425 ft | 423 kts | 350° |
| 2026-05-08 20:31 | 40.07042 | 9.43026 | 23852 ft | 419 kts | 350° |
| 2026-05-08 20:32 | 40.09937 | 9.42790 | 23250 ft | 415 kts | 350° |
| 2026-05-08 20:32 | 40.12804 | 9.42558 | 22717 ft | 409 kts | 351° |
| 2026-05-08 20:32 | 40.15625 | 9.42328 | 22233 ft | 404 kts | 351° |
| 2026-05-08 20:32 | 40.18374 | 9.42104 | 21751 ft | 399 kts | 351° |
| 2026-05-08 20:33 | 40.21128 | 9.41875 | 21295 ft | 394 kts | 351° |
| 2026-05-08 20:33 | 40.23853 | 9.41646 | 20841 ft | 390 kts | 351° |
| 2026-05-08 20:33 | 40.26548 | 9.41420 | 20381 ft | 387 kts | 351° |
| 2026-05-08 20:33 | 40.29254 | 9.41197 | 19914 ft | 383 kts | 351° |
| 2026-05-08 20:34 | 40.31873 | 9.40986 | 19451 ft | 380 kts | 351° |
| 2026-05-08 20:34 | 40.34498 | 9.40773 | 18981 ft | 376 kts | 351° |
| 2026-05-08 20:34 | 40.39715 | 9.40357 | 17962 ft | 375 kts | 352° |
| 2026-05-08 20:35 | 40.42315 | 9.40251 | 17448 ft | 373 kts | 353° |
| 2026-05-08 20:35 | 40.44905 | 9.40209 | 16954 ft | 371 kts | 354° |
| 2026-05-08 20:35 | 40.47481 | 9.40194 | 16452 ft | 370 kts | 354° |
| 2026-05-08 20:35 | 40.50053 | 9.40179 | 15951 ft | 368 kts | 354° |
| 2026-05-08 20:36 | 40.52614 | 9.40152 | 15452 ft | 367 kts | 354° |
| 2026-05-08 20:36 | 40.55161 | 9.40109 | 14954 ft | 366 kts | 354° |
| 2026-05-08 20:36 | 40.57703 | 9.40055 | 14436 ft | 366 kts | 354° |
| 2026-05-08 20:36 | 40.60245 | 9.39996 | 13922 ft | 366 kts | 354° |
| 2026-05-08 20:37 | 40.62794 | 9.39938 | 13358 ft | 365 kts | 354° |
| 2026-05-08 20:37 | 40.65331 | 9.39947 | 12834 ft | 365 kts | 1° |
| 2026-05-08 20:37 | 40.67821 | 9.40677 | 12297 ft | 369 kts | 18° |
| 2026-05-08 20:37 | 40.70088 | 9.42272 | 11627 ft | 374 kts | 33° |
| 2026-05-08 20:38 | 40.71957 | 9.44706 | 10970 ft | 379 kts | 52° |
| 2026-05-08 20:38 | 40.73383 | 9.47485 | 10816 ft | 352 kts | 54° |
| 2026-05-08 20:38 | 40.74710 | 9.50044 | 10681 ft | 325 kts | 54° |
| 2026-05-08 20:38 | 40.75967 | 9.52424 | 10378 ft | 309 kts | 53° |
| 2026-05-08 20:39 | 40.77186 | 9.54711 | 9911 ft | 301 kts | 53° |
| 2026-05-08 20:39 | 40.78373 | 9.56941 | 9553 ft | 293 kts | 54° |
| 2026-05-08 20:39 | 40.79542 | 9.59151 | 9223 ft | 296 kts | 54° |
| 2026-05-08 20:39 | 40.80703 | 9.61355 | 8833 ft | 283 kts | 54° |
| 2026-05-08 20:40 | 40.81789 | 9.63425 | 8571 ft | 267 kts | 54° |
| 2026-05-08 20:40 | 40.82840 | 9.65432 | 8464 ft | 264 kts | 54° |
| 2026-05-08 20:40 | 40.83883 | 9.67427 | 8343 ft | 263 kts | 54° |
| 2026-05-08 20:40 | 40.84920 | 9.69414 | 8208 ft | 263 kts | 54° |
| 2026-05-08 20:41 | 40.85957 | 9.71405 | 8057 ft | 262 kts | 54° |
| 2026-05-08 20:41 | 40.86987 | 9.73383 | 7812 ft | 260 kts | 54° |
| 2026-05-08 20:41 | 40.88011 | 9.75343 | 7550 ft | 258 kts | 54° |
| 2026-05-08 20:41 | 40.89011 | 9.77262 | 7289 ft | 256 kts | 55° |
| 2026-05-08 20:42 | 40.90017 | 9.79195 | 7017 ft | 254 kts | 55° |
| 2026-05-08 20:42 | 40.91014 | 9.81112 | 6758 ft | 253 kts | 55° |
| 2026-05-08 20:42 | 40.92007 | 9.83023 | 6492 ft | 251 kts | 55° |
| 2026-05-08 20:42 | 40.92978 | 9.84893 | 6282 ft | 244 kts | 55° |
| 2026-05-08 20:43 | 40.93929 | 9.86726 | 6016 ft | 239 kts | 55° |
| 2026-05-08 20:43 | 40.94858 | 9.88525 | 5962 ft | 237 kts | 55° |
| 2026-05-08 20:43 | 40.95790 | 9.90328 | 5902 ft | 238 kts | 55° |
| 2026-05-08 20:43 | 40.96722 | 9.92130 | 5794 ft | 238 kts | 55° |
| 2026-05-08 20:44 | 40.97652 | 9.93935 | 5681 ft | 237 kts | 55° |
| 2026-05-08 20:44 | 40.98578 | 9.95731 | 5603 ft | 237 kts | 55° |
| 2026-05-08 20:44 | 40.99506 | 9.97530 | 5531 ft | 236 kts | 55° |
| 2026-05-08 20:44 | 41.00434 | 9.99327 | 5459 ft | 236 kts | 55° |
| 2026-05-08 20:45 | 41.01361 | 10.01121 | 5391 ft | 236 kts | 55° |
| 2026-05-08 20:45 | 41.02284 | 10.02913 | 5319 ft | 235 kts | 55° |
| 2026-05-08 20:45 | 41.03202 | 10.04700 | 5245 ft | 235 kts | 55° |
| 2026-05-08 20:45 | 41.04127 | 10.06490 | 5163 ft | 235 kts | 55° |
| 2026-05-08 20:46 | 41.05052 | 10.08274 | 5081 ft | 234 kts | 54° |
| 2026-05-08 20:46 | 41.05975 | 10.10053 | 5010 ft | 234 kts | 54° |
| 2026-05-08 20:46 | 41.07145 | 10.11504 | 4936 ft | 232 kts | 25° |
| 2026-05-08 20:46 | 41.08711 | 10.11894 | 4858 ft | 233 kts | 353° |
| 2026-05-08 20:47 | 41.10201 | 10.11101 | 4778 ft | 234 kts | 326° |
| 2026-05-08 20:47 | 41.11544 | 10.09869 | 4695 ft | 235 kts | 326° |
| 2026-05-08 20:47 | 41.12894 | 10.08646 | 4617 ft | 235 kts | 327° |
| 2026-05-08 20:47 | 41.14231 | 10.07444 | 4538 ft | 235 kts | 327° |
| 2026-05-08 20:48 | 41.15545 | 10.06163 | 4459 ft | 235 kts | 314° |
| 2026-05-08 20:48 | 41.16263 | 10.04272 | 4367 ft | 232 kts | 277° |
| 2026-05-08 20:48 | 41.16002 | 10.02196 | 4306 ft | 232 kts | 242° |
| 2026-05-08 20:48 | 41.15140 | 10.00444 | 4226 ft | 222 kts | 236° |
| 2026-05-08 20:49 | 41.14286 | 9.98793 | 4174 ft | 210 kts | 236° |
| 2026-05-08 20:49 | 41.13493 | 9.97259 | 4109 ft | 194 kts | 236° |
| 2026-05-08 20:49 | 41.12771 | 9.95858 | 4053 ft | 172 kts | 236° |
| 2026-05-08 20:49 | 41.12131 | 9.94623 | 3972 ft | 155 kts | 236° |
| 2026-05-08 20:50 | 41.11524 | 9.93453 | 3931 ft | 153 kts | 236° |
| 2026-05-08 20:50 | 41.10922 | 9.92289 | 3892 ft | 153 kts | 236° |
| 2026-05-08 20:50 | 41.10322 | 9.91127 | 3844 ft | 153 kts | 236° |
| 2026-05-08 20:50 | 41.09722 | 9.89965 | 3801 ft | 153 kts | 236° |
| 2026-05-08 20:51 | 41.09121 | 9.88803 | 3752 ft | 152 kts | 236° |
| 2026-05-08 20:51 | 41.08523 | 9.87645 | 3705 ft | 152 kts | 236° |
| 2026-05-08 20:51 | 41.07925 | 9.86490 | 3651 ft | 152 kts | 236° |
| 2026-05-08 20:51 | 41.07328 | 9.85335 | 3617 ft | 152 kts | 236° |
| 2026-05-08 20:52 | 41.06732 | 9.84184 | 3573 ft | 151 kts | 236° |
| 2026-05-08 20:52 | 41.06137 | 9.83033 | 3530 ft | 151 kts | 236° |
| 2026-05-08 20:52 | 41.05542 | 9.81885 | 3480 ft | 151 kts | 236° |
| 2026-05-08 20:52 | 41.04947 | 9.80737 | 3435 ft | 151 kts | 236° |
| 2026-05-08 20:53 | 41.04359 | 9.79602 | 3390 ft | 151 kts | 236° |
| 2026-05-08 20:53 | 41.03757 | 9.78440 | 3340 ft | 151 kts | 236° |
| 2026-05-08 20:53 | 41.03170 | 9.77309 | 3293 ft | 151 kts | 236° |
| 2026-05-08 20:53 | 41.02577 | 9.76165 | 3246 ft | 151 kts | 236° |
| 2026-05-08 20:54 | 41.01984 | 9.75024 | 3207 ft | 150 kts | 236° |
| 2026-05-08 20:54 | 41.01391 | 9.73881 | 3161 ft | 150 kts | 236° |
| 2026-05-08 20:54 | 41.00799 | 9.72741 | 3117 ft | 150 kts | 236° |
| 2026-05-08 20:54 | 41.00206 | 9.71600 | 3068 ft | 150 kts | 236° |
| 2026-05-08 20:55 | 40.99613 | 9.70459 | 3028 ft | 151 kts | 236° |
| 2026-05-08 20:55 | 40.99019 | 9.69317 | 2888 ft | 150 kts | 236° |
| 2026-05-08 20:55 | 40.98427 | 9.68179 | 2718 ft | 150 kts | 236° |
| 2026-05-08 20:55 | 40.97839 | 9.67049 | 2527 ft | 149 kts | 236° |
| 2026-05-08 20:56 | 40.97253 | 9.65921 | 2335 ft | 148 kts | 235° |
| 2026-05-08 20:56 | 40.96670 | 9.64803 | 2142 ft | 148 kts | 236° |
| 2026-05-08 20:56 | 40.96088 | 9.63685 | 1948 ft | 147 kts | 236° |
| 2026-05-08 20:56 | 40.95509 | 9.62574 | 1752 ft | 145 kts | 236° |
| 2026-05-08 20:57 | 40.94941 | 9.61484 | 1547 ft | 142 kts | 236° |
| 2026-05-08 20:57 | 40.94381 | 9.60411 | 1367 ft | 141 kts | 236° |
| 2026-05-08 20:57 | 40.93829 | 9.59352 | 1177 ft | 139 kts | 236° |
| 2026-05-08 20:57 | 40.93278 | 9.58297 | 992 ft | 139 kts | 235° |
| 2026-05-08 20:58 | 40.92732 | 9.57251 | 803 ft | 138 kts | 235° |
| 2026-05-08 20:58 | 40.92190 | 9.56216 | 632 ft | 136 kts | 235° |
| 2026-05-08 20:58 | 40.91654 | 9.55195 | 432 ft | 134 kts | 234° |
| 2026-05-08 20:58 | 40.91122 | 9.54179 | 225 ft | 134 kts | 235° |
| 2026-05-08 20:59 | 40.90600 | 9.53173 | 88 ft | 132 kts | 235° |
| 2026-05-08 20:59 | 40.90093 | 9.52188 | 43 ft | 121 kts | 235° |
| 2026-05-08 20:59 | 40.89669 | 9.51381 | 33 ft | 87 kts | 235° |
| 2026-05-08 20:59 | 40.89395 | 9.50863 | 33 ft | 55 kts | 235° |
| 2026-05-08 21:00 | 40.89292 | 9.50664 | 34 ft | 18 kts | 236° |
| 2026-05-08 21:00 | 40.89278 | 9.50509 | 34 ft | 18 kts | 284° |
| 2026-05-08 21:00 | 40.89348 | 9.50437 | 34 ft | 6 kts | 11° |
| 2026-05-08 21:00 | 40.89372 | 9.50447 | 34 ft | 0 kts | 28° |